createdAt,value
2018-12-17T00:01:40.310Z,17.03
2018-12-17T00:04:08.486Z,16.17
2018-12-17T00:06:36.664Z,17.20
2018-12-17T00:09:06.769Z,17.77
2018-12-17T00:11:35.279Z,17.60
2018-12-17T00:14:03.459Z,17.30
2018-12-17T00:16:31.817Z,18.27
2018-12-17T00:18:59.981Z,18.10
2018-12-17T00:21:28.159Z,19.20
2018-12-17T00:23:56.512Z,19.70
2018-12-17T00:26:24.689Z,18.60
2018-12-17T00:28:52.900Z,20.50
2018-12-17T00:31:21.116Z,21.40
2018-12-17T00:33:49.319Z,23.70
2018-12-17T00:36:17.502Z,25.13
2018-12-17T00:38:45.702Z,22.90
2018-12-17T00:41:13.876Z,25.60
2018-12-17T00:43:42.184Z,24.30
2018-12-17T00:46:10.390Z,23.20
2018-12-17T00:48:38.728Z,21.77
2018-12-17T00:51:06.908Z,23.50
2018-12-17T00:53:35.124Z,22.60
2018-12-17T00:56:03.324Z,22.10
2018-12-17T00:58:31.554Z,19.97
2018-12-17T01:00:59.767Z,17.90
2018-12-17T01:03:27.951Z,20.17
2018-12-17T01:05:56.128Z,20.50
2018-12-17T01:08:24.379Z,17.20
2018-12-17T01:10:52.567Z,18.50
2018-12-17T01:13:20.765Z,19.10
2018-12-17T01:15:48.966Z,18.63
2018-12-17T01:18:17.225Z,18.20
2018-12-17T01:20:45.397Z,17.97
2018-12-17T01:23:13.772Z,16.67
2018-12-17T01:25:41.955Z,17.03
2018-12-17T01:28:10.129Z,17.60
2018-12-17T01:30:38.332Z,17.47
2018-12-17T01:33:06.522Z,18.43
2018-12-17T01:35:34.701Z,15.47
2018-12-17T01:38:03.036Z,18.70
2018-12-17T01:40:31.227Z,16.47
2018-12-17T01:42:59.408Z,17.30
2018-12-17T01:45:27.603Z,18.93
2018-12-17T01:47:55.800Z,17.70
2018-12-17T01:50:23.982Z,17.20
2018-12-17T01:52:52.211Z,17.33
2018-12-17T01:55:20.396Z,16.83
2018-12-17T01:57:48.657Z,17.40
2018-12-17T02:00:16.855Z,17.27
2018-12-17T02:02:45.050Z,16.17
2018-12-17T02:05:13.381Z,16.23
2018-12-17T02:07:41.807Z,17.23
2018-12-17T02:10:09.997Z,15.67
2018-12-17T02:12:38.176Z,16.13
2018-12-17T02:15:06.381Z,15.77
2018-12-17T02:17:34.560Z,18.90
2018-12-17T02:20:03.304Z,20.17
2018-12-17T02:22:31.495Z,17.20
2018-12-17T02:24:59.670Z,20.43
2018-12-17T02:27:27.851Z,19.77
2018-12-17T02:29:56.056Z,18.30
2018-12-17T02:32:24.245Z,19.93
2018-12-17T02:34:52.451Z,18.63
2018-12-17T02:37:20.652Z,18.10
2018-12-17T02:39:48.845Z,15.70
2018-12-17T02:42:17.046Z,16.53
2018-12-17T02:44:45.257Z,16.70
2018-12-17T02:47:13.432Z,15.57
2018-12-17T02:49:41.599Z,17.47
2018-12-17T02:52:09.812Z,16.23
2018-12-17T02:54:38.185Z,17.00
2018-12-17T02:57:06.446Z,15.47
2018-12-17T02:59:34.660Z,16.97
2018-12-17T03:02:02.844Z,16.37
2018-12-17T03:04:31.022Z,17.40
2018-12-17T03:06:59.228Z,17.90
2018-12-17T03:09:27.404Z,19.10
2018-12-17T03:11:55.595Z,17.93
2018-12-17T03:14:23.866Z,18.17
2018-12-17T03:16:52.057Z,18.23
2018-12-17T03:19:20.242Z,17.47
2018-12-17T03:21:48.571Z,18.70
2018-12-17T03:24:17.140Z,19.43
2018-12-17T03:26:45.415Z,15.40
2018-12-17T03:29:13.616Z,20.40
2018-12-17T03:31:42.127Z,19.50
2018-12-17T03:34:10.319Z,17.23
2018-12-17T03:36:38.537Z,18.53
2018-12-17T03:39:06.845Z,18.50
2018-12-17T03:41:35.032Z,17.23
2018-12-17T03:44:03.246Z,16.80
2018-12-17T03:46:31.434Z,16.93
2018-12-17T03:48:59.612Z,18.40
2018-12-17T03:51:27.825Z,17.30
2018-12-17T03:53:56.005Z,17.90
2018-12-17T03:56:24.190Z,17.00
2018-12-17T03:58:59.035Z,18.47
2018-12-17T04:01:22.781Z,19.13
2018-12-17T04:03:51.152Z,18.50
2018-12-17T04:06:19.365Z,17.70
2018-12-17T04:08:47.694Z,16.87
2018-12-17T04:11:15.907Z,18.03
2018-12-17T04:13:44.229Z,17.37
2018-12-17T04:16:12.412Z,16.30
2018-12-17T04:18:40.818Z,16.70
2018-12-17T04:21:09.029Z,16.43
2018-12-17T04:23:37.219Z,17.80
2018-12-17T04:26:05.412Z,17.43
2018-12-17T04:28:33.617Z,14.70
2018-12-17T04:31:01.798Z,14.57
2018-12-17T04:33:30.140Z,16.40
2018-12-17T04:35:58.341Z,15.70
2018-12-17T04:38:26.521Z,14.97
2018-12-17T04:40:54.752Z,15.37
2018-12-17T04:43:22.945Z,13.63
2018-12-17T04:45:51.141Z,15.90
2018-12-17T04:48:19.318Z,15.37
2018-12-17T04:50:47.541Z,12.80
2018-12-17T04:53:15.714Z,13.33
2018-12-17T04:55:43.910Z,15.20
2018-12-17T04:58:12.113Z,12.67
2018-12-17T05:00:40.465Z,12.30
2018-12-17T05:03:08.638Z,13.07
2018-12-17T05:05:36.855Z,11.40
2018-12-17T05:08:05.282Z,12.93
2018-12-17T05:10:33.471Z,13.80
2018-12-17T05:13:01.668Z,12.50
2018-12-17T05:15:29.960Z,12.50
2018-12-17T05:17:58.169Z,11.97
2018-12-17T05:20:26.382Z,11.87
2018-12-17T05:23:00.551Z,11.10
2018-12-17T05:25:28.760Z,11.33
2018-12-17T05:27:56.941Z,10.40
2018-12-17T05:30:25.168Z,12.80
2018-12-17T05:32:53.380Z,13.17
2018-12-17T05:35:21.564Z,12.93
2018-12-17T05:37:49.748Z,13.97
2018-12-17T05:40:18.057Z,14.80
2018-12-17T05:42:46.493Z,12.70
2018-12-17T05:45:14.669Z,12.30
2018-12-17T05:47:42.881Z,12.93
2018-12-17T05:50:11.089Z,13.30
2018-12-17T05:52:39.277Z,13.53
2018-12-17T05:55:07.504Z,13.37
2018-12-17T05:57:35.692Z,12.37
2018-12-17T06:00:06.173Z,10.93
2018-12-17T06:02:34.403Z,12.07
2018-12-17T06:05:02.584Z,12.23
2018-12-17T06:07:30.760Z,12.93
2018-12-17T06:09:59.176Z,12.07
2018-12-17T06:12:27.353Z,11.40
2018-12-17T06:14:55.529Z,11.43
2018-12-17T06:17:23.758Z,12.37
2018-12-17T06:19:51.942Z,12.97
2018-12-17T06:22:20.254Z,12.57
2018-12-17T06:24:48.466Z,12.30
2018-12-17T06:27:16.737Z,10.67
2018-12-17T06:29:44.922Z,11.20
2018-12-17T06:32:13.130Z,13.50
2018-12-17T06:34:41.313Z,11.00
2018-12-17T06:37:09.490Z,11.20
2018-12-17T06:39:37.720Z,11.63
2018-12-17T06:42:05.904Z,12.63
2018-12-17T06:44:34.079Z,14.60
2018-12-17T06:47:02.384Z,13.20
2018-12-17T06:49:30.626Z,11.93
2018-12-17T06:51:59.134Z,12.23
2018-12-17T06:54:27.774Z,11.80
2018-12-17T06:56:55.961Z,13.50
2018-12-17T06:59:24.137Z,13.23
2018-12-17T07:01:52.500Z,13.30
2018-12-17T07:04:20.681Z,12.07
2018-12-17T07:06:48.863Z,11.70
2018-12-17T07:09:17.159Z,11.67
2018-12-17T07:11:45.580Z,12.43
2018-12-17T07:14:13.765Z,12.30
2018-12-17T07:16:41.961Z,14.83
2018-12-17T07:19:10.133Z,12.10
2018-12-17T07:21:38.334Z,11.87
2018-12-17T07:24:06.583Z,10.97
2018-12-17T07:26:34.771Z,12.57
2018-12-17T07:29:02.953Z,15.93
2018-12-17T07:31:31.148Z,16.23
2018-12-17T07:33:59.397Z,17.27
2018-12-17T07:36:27.620Z,18.13
2018-12-17T07:38:55.893Z,17.87
2018-12-17T07:41:24.087Z,17.73
2018-12-17T07:43:52.270Z,19.73
2018-12-17T07:46:20.594Z,20.27
2018-12-17T07:48:48.858Z,16.53
2018-12-17T07:51:17.033Z,16.00
2018-12-17T07:53:45.221Z,11.50
2018-12-17T07:56:13.448Z,11.63
2018-12-17T07:58:41.626Z,10.37
2018-12-17T08:01:09.831Z,11.67
2018-12-17T08:03:38.026Z,12.20
2018-12-17T08:06:06.225Z,11.93
2018-12-17T08:08:35.555Z,11.93
2018-12-17T08:11:04.252Z,10.33
2018-12-17T08:13:32.748Z,12.33
2018-12-17T08:16:00.961Z,12.40
2018-12-17T08:18:29.149Z,15.10
2018-12-17T08:20:57.325Z,14.13
2018-12-17T08:23:25.554Z,13.97
2018-12-17T08:25:53.733Z,15.33
2018-12-17T08:30:56.749Z,12.97
2018-12-17T08:33:24.923Z,16.40
2018-12-17T08:35:53.153Z,28.07
2018-12-17T08:38:21.362Z,28.27
2018-12-17T08:40:49.756Z,27.13
2018-12-17T08:43:18.052Z,27.60
2018-12-17T08:45:46.252Z,34.77
2018-12-17T08:48:14.429Z,33.80
2018-12-17T08:50:42.600Z,34.60
2018-12-17T08:53:10.800Z,33.87
2018-12-17T08:55:38.976Z,32.20
2018-12-17T08:58:07.325Z,33.23
2018-12-17T09:00:35.596Z,33.87
2018-12-17T09:03:03.773Z,34.17
2018-12-17T09:05:31.948Z,33.80
2018-12-17T09:08:00.151Z,31.00
2018-12-17T09:10:28.334Z,32.43
2018-12-17T09:12:56.515Z,32.70
2018-12-17T09:15:24.728Z,31.83
2018-12-17T09:17:52.925Z,33.40
2018-12-17T09:20:21.572Z,32.70
2018-12-17T09:22:49.775Z,31.10
2018-12-17T09:25:17.998Z,31.00
2018-12-17T09:27:46.178Z,29.37
2018-12-17T09:30:18.302Z,31.20
2018-12-17T09:32:44.836Z,30.90
2018-12-17T09:35:13.424Z,31.60
2018-12-17T09:37:41.722Z,28.60
2018-12-17T09:40:09.963Z,28.43
2018-12-17T09:42:38.170Z,30.17
2018-12-17T09:45:07.155Z,28.30
2018-12-17T09:47:35.332Z,28.20
2018-12-17T09:50:04.767Z,28.40
2018-12-17T09:52:32.981Z,26.40
2018-12-17T09:55:01.172Z,28.20
2018-12-17T09:57:29.355Z,28.70
2018-12-17T09:59:57.544Z,26.77
2018-12-17T10:02:25.779Z,27.73
2018-12-17T10:04:53.962Z,27.53
2018-12-17T10:07:22.164Z,26.93
2018-12-17T10:09:50.366Z,29.40
2018-12-17T10:12:18.544Z,27.20
2018-12-17T10:14:46.736Z,26.20
2018-12-17T10:17:14.905Z,28.30
2018-12-17T10:19:43.095Z,26.57
2018-12-17T10:22:11.664Z,27.57
2018-12-17T10:24:39.913Z,26.00
2018-12-17T10:27:08.128Z,27.50
2018-12-17T10:29:37.032Z,25.07
2018-12-17T10:32:05.232Z,26.10
2018-12-17T10:34:33.818Z,24.10
2018-12-17T10:37:02.122Z,25.00
2018-12-17T10:39:30.334Z,25.53
2018-12-17T10:41:58.532Z,26.85
2018-12-17T10:44:28.069Z,23.97
2018-12-17T10:46:56.536Z,24.83
2018-12-17T10:49:24.727Z,26.03
2018-12-17T10:51:53.076Z,25.80
2018-12-17T10:54:21.267Z,25.10
2018-12-17T10:56:49.459Z,25.30
2018-12-17T10:59:17.665Z,25.00
2018-12-17T11:01:55.364Z,26.80
2018-12-17T11:04:24.711Z,24.97
2018-12-17T11:06:52.949Z,15.33
2018-12-17T11:09:21.123Z,11.10
2018-12-17T11:11:49.425Z,10.07
2018-12-17T11:14:17.648Z,10.13
2018-12-17T11:16:45.818Z,10.20
2018-12-17T11:19:14.122Z,10.60
2018-12-17T11:21:42.293Z,10.73
2018-12-17T11:24:10.592Z,10.90
2018-12-17T11:26:38.882Z,11.50
2018-12-17T11:29:07.048Z,10.37
2018-12-17T11:31:35.308Z,9.73
2018-12-17T11:34:03.512Z,9.93
2018-12-17T11:36:31.687Z,10.00
2018-12-17T11:39:00.793Z,10.10
2018-12-17T11:41:28.976Z,9.93
2018-12-17T11:43:57.263Z,9.17
2018-12-17T11:46:25.431Z,10.23
2018-12-17T11:48:53.646Z,9.90
2018-12-17T11:51:21.894Z,10.13
2018-12-17T11:53:50.149Z,15.20
2018-12-17T11:56:18.340Z,11.27
2018-12-17T11:58:46.723Z,10.73
2018-12-17T12:01:14.889Z,10.27
2018-12-17T12:03:44.573Z,8.97
2018-12-17T12:06:14.290Z,9.43
2018-12-17T12:08:42.736Z,10.13
2018-12-17T12:11:10.954Z,10.40
2018-12-17T12:13:39.127Z,10.83
2018-12-17T12:16:07.289Z,8.63
2018-12-17T12:18:35.622Z,10.13
2018-12-17T12:21:03.790Z,8.10
2018-12-17T12:23:31.965Z,9.30
2018-12-17T12:26:00.153Z,9.03
2018-12-17T12:28:28.319Z,11.30
2018-12-17T12:31:00.486Z,9.70
2018-12-17T12:33:26.961Z,9.00
2018-12-17T12:35:55.151Z,9.40
2018-12-17T12:38:23.319Z,11.10
2018-12-17T12:40:51.500Z,10.27
2018-12-17T12:43:19.739Z,9.53
2018-12-17T12:45:47.924Z,10.90
2018-12-17T12:48:16.105Z,9.40
2018-12-17T12:50:44.288Z,8.50
2018-12-17T12:53:12.447Z,9.53
2018-12-17T12:55:40.657Z,9.30
2018-12-17T12:58:08.830Z,9.40
2018-12-17T13:00:37.185Z,16.33
2018-12-17T13:03:05.388Z,21.00
2018-12-17T13:05:33.562Z,22.63
2018-12-17T13:08:01.731Z,23.30
2018-12-17T13:10:29.957Z,23.37
2018-12-17T13:12:58.134Z,23.80
2018-12-17T13:15:26.302Z,21.93
2018-12-17T13:17:54.494Z,20.90
2018-12-17T13:20:22.676Z,22.13
2018-12-17T13:22:50.882Z,21.40
2018-12-17T13:25:21.090Z,22.50
2018-12-17T13:27:49.253Z,20.37
2018-12-17T13:30:17.599Z,19.90
2018-12-17T13:32:45.783Z,20.70
2018-12-17T13:35:13.955Z,22.47
2018-12-17T13:37:42.133Z,23.20
2018-12-17T13:40:10.329Z,26.80
2018-12-17T13:42:38.503Z,23.73
2018-12-17T13:45:06.818Z,22.97
2018-12-17T13:47:35.028Z,22.17
2018-12-17T13:53:10.685Z,20.27
2018-12-17T13:55:38.862Z,19.67
2018-12-17T13:58:07.046Z,20.87
2018-12-17T14:00:35.352Z,21.17
2018-12-17T14:03:03.532Z,18.87
2018-12-17T14:05:31.691Z,20.80
2018-12-17T14:07:59.909Z,20.03
2018-12-17T14:10:33.437Z,19.23
2018-12-17T14:13:01.647Z,20.50
2018-12-17T14:15:31.869Z,20.90
2018-12-17T14:18:02.105Z,19.90
2018-12-17T14:20:35.773Z,20.83
2018-12-17T14:23:04.181Z,21.70
2018-12-17T14:25:32.384Z,20.63
2018-12-17T14:28:00.559Z,20.77
2018-12-17T14:30:29.516Z,21.10
2018-12-17T14:32:57.691Z,20.63
2018-12-17T14:35:25.861Z,21.80
2018-12-17T14:37:59.586Z,22.27
2018-12-17T14:40:27.753Z,20.90
2018-12-17T14:42:55.965Z,21.20
2018-12-17T14:45:24.171Z,21.33
2018-12-17T14:47:52.927Z,20.67
2018-12-17T14:50:21.256Z,22.23
2018-12-17T14:52:49.476Z,22.40
2018-12-17T14:55:17.672Z,21.20
2018-12-17T14:57:45.852Z,22.57
2018-12-17T15:00:14.180Z,22.30
2018-12-17T15:02:42.552Z,21.80
2018-12-17T15:05:10.745Z,21.40
2018-12-17T15:07:39.096Z,17.30
2018-12-17T15:10:07.300Z,16.87
2018-12-17T15:12:35.476Z,17.20
2018-12-17T15:15:06.666Z,14.73
2018-12-17T15:17:34.830Z,14.63
2018-12-17T15:20:03.139Z,13.07
2018-12-17T15:22:31.475Z,12.20
2018-12-17T15:25:00.351Z,12.57
2018-12-17T15:27:28.539Z,13.77
2018-12-17T15:29:56.868Z,13.33
2018-12-17T15:32:25.198Z,13.83
2018-12-17T15:34:53.370Z,12.53
2018-12-17T15:37:21.571Z,13.83
2018-12-17T15:39:49.741Z,14.60
2018-12-17T15:42:17.930Z,16.17
2018-12-17T15:44:46.125Z,15.67
2018-12-17T15:47:14.411Z,15.80
2018-12-17T15:49:42.571Z,15.80
2018-12-17T15:52:10.771Z,16.13
2018-12-17T15:54:38.952Z,17.67
2018-12-17T15:57:07.137Z,17.47
2018-12-17T15:59:35.401Z,17.30
2018-12-17T16:02:03.648Z,16.97
2018-12-17T16:04:31.814Z,20.53
2018-12-17T16:07:00.044Z,16.20
2018-12-17T16:09:28.240Z,17.30
2018-12-17T16:11:57.014Z,14.60
2018-12-17T16:14:25.921Z,15.30
2018-12-17T16:16:54.112Z,18.90
2018-12-17T16:19:22.580Z,23.23
2018-12-17T16:21:50.990Z,17.30
2018-12-17T16:24:19.647Z,16.73
2018-12-17T16:26:48.751Z,16.20
2018-12-17T16:29:17.691Z,17.80
2018-12-17T16:31:45.945Z,19.07
2018-12-17T16:34:14.161Z,19.23
2018-12-17T16:36:43.308Z,22.40
2018-12-17T16:39:11.483Z,25.30
2018-12-17T16:41:39.665Z,28.40
2018-12-17T16:44:07.854Z,28.70
2018-12-17T16:46:36.030Z,29.17
2018-12-17T16:49:04.201Z,29.70
2018-12-17T16:51:32.524Z,28.40
2018-12-17T16:54:00.695Z,28.67
2018-12-17T16:56:33.920Z,28.57
2018-12-17T16:59:02.209Z,28.40
2018-12-17T17:01:30.575Z,31.87
2018-12-17T17:03:58.785Z,34.17
2018-12-17T17:06:26.952Z,30.87
2018-12-17T17:08:55.150Z,28.17
2018-12-17T17:11:23.351Z,30.97
2018-12-17T17:13:51.655Z,29.67
2018-12-17T17:16:19.830Z,30.00
2018-12-17T17:18:48.019Z,30.03
2018-12-17T17:21:16.402Z,27.20
2018-12-17T17:23:44.580Z,28.00
2018-12-17T17:26:13.626Z,28.00
2018-12-17T17:28:41.808Z,28.30
2018-12-17T17:31:10.099Z,27.87
2018-12-17T17:33:38.313Z,29.10
2018-12-17T17:36:06.581Z,30.10
2018-12-17T17:38:34.757Z,32.33
2018-12-17T17:41:03.102Z,27.90
2018-12-17T17:43:31.386Z,29.50
2018-12-17T17:45:59.570Z,29.60
2018-12-17T17:48:27.765Z,27.20
2018-12-17T17:50:55.947Z,28.03
2018-12-17T17:53:24.128Z,27.30
2018-12-17T17:55:52.359Z,27.90
2018-12-17T17:58:20.534Z,28.77
2018-12-17T18:00:48.713Z,27.63
2018-12-17T18:03:17.089Z,28.50
2018-12-17T18:05:45.294Z,28.77
2018-12-17T18:08:13.593Z,29.27
2018-12-17T18:10:41.857Z,25.63
2018-12-17T18:13:10.050Z,25.60
2018-12-17T18:15:40.005Z,27.10
2018-12-17T18:18:08.603Z,24.97
2018-12-17T18:20:36.793Z,25.40
2018-12-17T18:23:04.980Z,24.83
2018-12-17T18:25:33.241Z,24.23
2018-12-17T18:28:01.423Z,25.70
2018-12-17T18:30:29.616Z,27.50
2018-12-17T18:32:57.953Z,26.53
2018-12-17T18:35:26.276Z,31.33
2018-12-17T18:37:54.808Z,26.97
2018-12-17T18:40:23.171Z,28.90
2018-12-17T18:42:51.419Z,26.87
2018-12-17T18:45:19.692Z,28.27
2018-12-17T18:47:47.913Z,28.00
2018-12-17T18:50:16.143Z,27.50
2018-12-17T18:52:44.465Z,28.50
2018-12-17T18:55:12.670Z,25.40
2018-12-17T18:57:40.899Z,24.90
2018-12-17T19:00:10.760Z,23.70
2018-12-17T19:02:39.044Z,24.23
2018-12-17T19:05:07.258Z,25.87
2018-12-17T19:07:35.456Z,24.70
2018-12-17T19:10:05.775Z,24.20
2018-12-17T19:12:33.961Z,24.90
2018-12-17T19:15:02.157Z,25.70
2018-12-17T19:17:30.375Z,26.90
2018-12-17T19:19:58.554Z,24.97
2018-12-17T19:22:26.735Z,27.23
2018-12-17T19:24:55.076Z,26.20
2018-12-17T19:27:23.411Z,27.33
2018-12-17T19:29:51.598Z,28.20
2018-12-17T19:32:20.009Z,26.67
2018-12-17T19:34:54.131Z,27.77
2018-12-17T19:37:22.348Z,27.60
2018-12-17T19:39:50.665Z,29.80
2018-12-17T19:42:18.860Z,30.00
2018-12-17T19:44:47.079Z,29.50
2018-12-17T19:47:15.307Z,30.00
2018-12-17T19:49:43.518Z,26.17
2018-12-17T19:52:11.882Z,25.87
2018-12-17T19:54:40.296Z,26.67
2018-12-17T19:57:08.484Z,31.13
2018-12-17T19:59:36.899Z,35.23
2018-12-17T20:02:05.131Z,30.50
2018-12-17T20:04:33.321Z,29.23
2018-12-17T20:07:01.524Z,29.13
2018-12-17T20:09:29.731Z,30.50
2018-12-17T20:11:57.951Z,27.17
2018-12-17T20:14:26.295Z,28.07
2018-12-17T20:16:54.643Z,29.30
2018-12-17T20:19:22.834Z,28.97
2018-12-17T20:21:51.775Z,27.63
2018-12-17T20:24:20.083Z,28.67
2018-12-17T20:26:48.396Z,30.57
2018-12-17T20:29:16.584Z,27.67
2018-12-17T20:31:44.777Z,30.33
2018-12-17T20:34:12.957Z,28.63
2018-12-17T20:36:41.186Z,28.37
2018-12-17T20:39:09.374Z,28.10
2018-12-17T20:41:37.649Z,27.90
2018-12-17T20:44:05.883Z,26.57
2018-12-17T20:46:34.056Z,27.77
2018-12-17T20:49:02.253Z,28.30
2018-12-17T20:51:30.448Z,24.80
2018-12-17T20:53:58.725Z,23.70
2018-12-17T20:56:27.037Z,26.17
2018-12-17T20:58:55.397Z,24.57
2018-12-17T21:01:23.604Z,24.17
2018-12-17T21:03:51.792Z,25.70
2018-12-17T21:06:20.015Z,25.23
2018-12-17T21:08:48.212Z,22.10
2018-12-17T21:11:16.566Z,22.43
2018-12-17T21:13:44.781Z,23.10
2018-12-17T21:16:12.968Z,22.37
2018-12-17T21:18:41.163Z,23.10
2018-12-17T21:21:09.756Z,21.93
2018-12-17T21:23:38.286Z,23.83
2018-12-17T21:26:06.499Z,24.53
2018-12-17T21:28:34.766Z,25.80
2018-12-17T21:31:02.955Z,28.10
2018-12-17T21:33:31.210Z,27.00
2018-12-17T21:35:59.441Z,26.50
2018-12-17T21:38:27.661Z,29.60
2018-12-17T21:40:55.854Z,26.13
2018-12-17T21:43:24.155Z,25.43
2018-12-17T21:45:52.435Z,26.47
2018-12-17T21:48:20.627Z,25.13
2018-12-17T21:50:49.005Z,24.83
2018-12-17T21:53:17.202Z,25.50
2018-12-17T21:55:45.386Z,25.37
2018-12-17T21:58:13.607Z,25.63
2018-12-17T22:00:41.784Z,27.13
2018-12-17T22:03:13.192Z,22.07
2018-12-17T22:05:40.205Z,25.37
2018-12-17T22:08:08.396Z,24.63
2018-12-17T22:10:36.647Z,22.83
2018-12-17T22:13:04.862Z,25.73
2018-12-17T22:15:33.057Z,27.90
2018-12-17T22:18:01.245Z,27.97
2018-12-17T22:20:29.483Z,28.20
2018-12-17T22:22:57.672Z,24.40
2018-12-17T22:25:25.860Z,25.30
2018-12-17T22:27:54.060Z,24.27
2018-12-17T22:30:22.303Z,23.33
2018-12-17T22:32:50.492Z,35.83
2018-12-17T22:35:18.700Z,31.47
2018-12-17T22:37:46.876Z,24.30
2018-12-17T22:40:15.060Z,28.50
2018-12-17T22:42:43.479Z,26.87
2018-12-17T22:45:11.659Z,27.20
2018-12-17T22:47:39.841Z,29.23
2018-12-17T22:50:08.070Z,28.73
2018-12-17T22:52:36.257Z,25.13
2018-12-17T22:55:04.590Z,23.57
2018-12-17T22:57:32.803Z,26.63
2018-12-17T23:00:01.140Z,26.97
2018-12-17T23:02:29.328Z,26.33
2018-12-17T23:04:57.520Z,23.37
2018-12-17T23:07:26.105Z,23.40
2018-12-17T23:10:12.007Z,23.70
2018-12-17T23:12:57.977Z,21.80
2018-12-17T23:15:43.871Z,20.97
2018-12-17T23:18:11.433Z,20.80
2018-12-17T23:20:41.826Z,23.43
2018-12-17T23:23:10.039Z,21.60
2018-12-17T23:25:38.217Z,21.70
2018-12-17T23:28:07.929Z,22.40
2018-12-17T23:30:36.144Z,22.70
2018-12-17T23:33:04.356Z,22.20
2018-12-17T23:35:32.542Z,23.67
2018-12-17T23:38:00.753Z,21.93
2018-12-17T23:40:29.075Z,22.67
2018-12-17T23:42:57.259Z,22.80
2018-12-17T23:45:25.477Z,23.10
2018-12-17T23:47:53.682Z,24.40
2018-12-17T23:50:21.875Z,24.83
2018-12-17T23:52:50.063Z,24.57
2018-12-17T23:55:18.261Z,26.30
2018-12-17T23:57:46.570Z,25.03
